Terminal Aerodrome Forecast
Issued by NWS Central Illinois

Home | Current Version | Previous Version | Text Only | Print | Product List | Glossary On
Versions: 1 2 3 4 5 6 7 8 9 10 11 12 13 14 15 16 17 18 19 20 21 22 23
000
FTUS43 KILX 241735 AAD
TAFPIA
TAF AMD
KPIA 241735Z 2418/2518 36008KT P6SM VCSH BKN035
     FM250000 34007KT P6SM BKN025
     FM250700 34006KT P6SM BKN012
     FM251100 33006KT 5SM BR BKN009
     FM251400 33007KT P6SM BKN018
     FM251600 31008KT P6SM SCT035=

USA.gov is the U.S. government's official web portal to all federal, state and local government web resources and services.